Time;durP1;ratioP1;P1;durP2;ratioP2;P2;SDS_P1;SDS_P2;PMS_P1;PMS_P2;Temp;Humidity;BMP_temperature;BMP_pressure;BME280_temperature;BME280_humidity;BME280_pressure;Samples;Min_cycle;Max_cycle;Signal;HPM_P1;HPM_P2
2023/11/30 00:01:12;;;;;;;3.13;2.92;;;;;;;2.03;100.00;97385.38;5078086;28;20395;-76
2023/11/30 00:03:38;;;;;;;4.10;2.67;;;;;;;2.05;100.00;97396.78;5086754;28;20017;-76
2023/11/30 00:06:03;;;;;;;2.55;1.08;;;;;;;2.03;100.00;97403.84;5107044;28;20153;-76
2023/11/30 00:08:29;;;;;;;2.47;2.30;;;;;;;1.95;100.00;97407.63;5094996;28;20026;-75
2023/11/30 00:10:54;;;;;;;0.88;0.88;;;;;;;2.04;100.00;97410.88;5094870;28;20027;-76
2023/11/30 00:13:20;;;;;;;1.38;1.27;;;;;;;2.05;100.00;97402.06;5094588;28;20027;-76
2023/11/30 00:15:45;;;;;;;5.38;2.05;;;;;;;1.98;100.00;97400.50;5094875;28;20023;-76
2023/11/30 00:18:11;;;;;;;1.67;1.13;;;;;;;1.92;100.00;97394.53;5093444;28;20027;-76
2023/11/30 00:20:36;;;;;;;0.88;0.88;;;;;;;1.95;100.00;97405.00;5074350;28;20474;-76
2023/11/30 00:23:02;;;;;;;1.90;1.38;;;;;;;2.03;100.00;97408.28;5107993;28;20028;-76
2023/11/30 00:25:28;;;;;;;7.13;3.47;;;;;;;1.93;100.00;97399.78;5091294;28;20521;-76
2023/11/30 00:27:54;;;;;;;2.97;1.60;;;;;;;2.12;100.00;97418.56;5089725;28;20459;-77
2023/11/30 00:30:20;;;;;;;0.82;0.82;;;;;;;2.18;100.00;97413.94;5094282;28;20035;-76
2023/11/30 00:32:45;;;;;;;4.93;1.65;;;;;;;2.20;100.00;97419.16;5094712;28;20457;-76
2023/11/30 00:35:11;;;;;;;0.95;0.95;;;;;;;2.26;100.00;97426.03;5076426;28;20035;-76
2023/11/30 00:37:36;;;;;;;1.65;1.55;;;;;;;2.24;100.00;97435.78;5074175;28;20027;-76
2023/11/30 00:40:03;;;;;;;2.17;2.05;;;;;;;2.13;100.00;97441.38;5090895;28;20031;-77
2023/11/30 00:42:29;;;;;;;2.78;2.13;;;;;;;2.10;100.00;97437.06;5091903;28;20024;-76
2023/11/30 00:44:55;;;;;;;1.52;1.42;;;;;;;2.20;100.00;97448.19;5098364;28;20440;-76
2023/11/30 00:47:20;;;;;;;4.00;2.58;;;;;;;2.28;100.00;97440.06;5093363;28;20032;-77
2023/11/30 00:49:46;;;;;;;2.80;2.13;;;;;;;2.31;100.00;97446.06;5073945;28;20074;-77
2023/11/30 00:52:11;;;;;;;4.07;3.30;;;;;;;2.33;100.00;97439.00;5090494;28;20054;-76
2023/11/30 00:54:37;;;;;;;7.20;3.67;;;;;;;2.20;100.00;97437.63;5073984;28;20032;-76
2023/11/30 00:57:03;;;;;;;1.70;1.60;;;;;;;2.29;100.00;97434.72;5091798;28;20020;-76
2023/11/30 00:59:29;;;;;;;1.95;1.85;;;;;;;2.32;100.00;97447.81;5076510;28;20020;-75
2023/11/30 01:01:54;;;;;;;2.35;1.75;;;;;;;2.32;100.00;97449.59;5085520;28;20027;-76
2023/11/30 01:04:20;;;;;;;2.83;2.60;;;;;;;2.40;100.00;97458.16;5093816;28;20042;-75
2023/11/30 01:06:45;;;;;;;2.13;1.95;;;;;;;2.39;100.00;97456.41;5103680;28;20027;-76
2023/11/30 01:09:11;;;;;;;5.32;2.88;;;;;;;2.43;100.00;97458.88;5081919;28;20028;-76
2023/11/30 01:11:43;;;;;;;2.70;2.08;;;;;;;2.44;100.00;97451.84;5085527;28;20024;-76
2023/11/30 01:14:09;;;;;;;;;;;;;;;2.47;100.00;97463.16;5094113;28;20027;-76
2023/11/30 01:16:35;;;;;;;1.70;1.60;;;;;;;2.34;100.00;97456.53;5093701;28;19931;-76
2023/11/30 01:19:00;;;;;;;1.52;1.45;;;;;;;2.34;100.00;97455.69;5061993;28;20024;-75
2023/11/30 01:21:26;;;;;;;4.57;2.80;;;;;;;2.29;100.00;97447.03;5073323;28;20088;-75
2023/11/30 01:23:51;;;;;;;5.15;4.25;;;;;;;2.28;100.00;97455.88;5073342;28;20026;-77
2023/11/30 01:26:17;;;;;;;1.15;1.15;;;;;;;2.25;100.00;97455.94;5073022;28;20028;-76
2023/11/30 01:28:43;;;;;;;3.13;2.70;;;;;;;2.21;100.00;97467.53;5073075;28;20016;-76
2023/11/30 01:31:09;;;;;;;2.45;2.25;;;;;;;2.12;100.00;97450.22;5073299;28;20023;-76
2023/11/30 01:33:36;;;;;;;1.75;1.65;;;;;;;2.13;100.00;97460.69;5056348;28;20028;-76
2023/11/30 01:36:03;;;;;;;2.65;2.47;;;;;;;2.13;100.00;97462.47;5088343;28;20019;-76
2023/11/30 01:38:29;;;;;;;1.85;1.73;;;;;;;2.12;100.00;97468.69;5093259;28;20019;-76
2023/11/30 01:40:55;;;;;;;2.17;1.98;;;;;;;2.19;100.00;97463.16;5070744;28;20028;-76
2023/11/30 01:43:21;;;;;;;2.08;1.73;;;;;;;2.22;100.00;97461.31;5056036;28;20483;-77
2023/11/30 01:45:47;;;;;;;1.95;1.85;;;;;;;2.24;100.00;97465.66;5072914;28;20030;-76
2023/11/30 01:48:13;;;;;;;3.60;2.95;;;;;;;2.29;100.00;97458.47;5091007;28;20487;-76
2023/11/30 01:50:39;;;;;;;1.33;1.23;;;;;;;2.29;100.00;97471.66;5072421;28;20048;-77
2023/11/30 01:53:06;;;;;;;4.25;1.92;;;;;;;2.24;100.00;97467.44;5098097;28;20024;-77
2023/11/30 01:55:31;;;;;;;0.93;0.93;;;;;;;2.18;100.00;97463.22;5072030;28;20521;-77
2023/11/30 01:57:57;;;;;;;1.45;1.35;;;;;;;2.22;100.00;97467.47;5072395;28;20020;-76
2023/11/30 02:00:24;;;;;;;3.78;2.33;;;;;;;2.20;100.00;97450.81;5055859;28;20024;-77
2023/11/30 02:02:49;;;;;;;1.95;1.55;;;;;;;2.27;100.00;97459.44;5090718;28;20016;-76
2023/11/30 02:05:15;;;;;;;1.67;1.58;;;;;;;2.29;100.00;97463.75;5072543;28;20391;-77
2023/11/30 02:07:40;;;;;;;2.15;1.95;;;;;;;2.31;100.00;97468.97;5090616;28;20480;-76
2023/11/30 02:10:06;;;;;;;3.13;2.75;;;;;;;2.27;100.00;97469.97;5090622;28;20487;-76
2023/11/30 02:12:32;;;;;;;4.35;1.50;;;;;;;2.16;100.00;97479.06;5055518;28;20024;-76
2023/11/30 02:14:59;;;;;;;3.28;2.00;;;;;;;2.23;100.00;97478.88;5090694;28;20024;-75
2023/11/30 02:17:24;;;;;;;9.02;2.70;;;;;;;2.25;100.00;97483.19;5072524;28;20487;-76
2023/11/30 02:19:50;;;;;;;1.75;1.65;;;;;;;2.28;100.00;97480.47;5094659;28;20023;-76
2023/11/30 02:22:15;;;;;;;8.70;3.20;;;;;;;2.04;100.00;97483.84;5092701;28;20105;-76
2023/11/30 02:24:41;;;;;;;1.73;1.63;;;;;;;2.23;100.00;97484.16;5092330;28;20035;-76
2023/11/30 02:27:06;;;;;;;1.98;1.88;;;;;;;2.19;100.00;97481.63;5092909;28;20027;-75
2023/11/30 02:29:32;;;;;;;1.27;0.75;;;;;;;2.09;100.00;97480.16;5065165;28;20024;-75
2023/11/30 02:31:58;;;;;;;3.70;2.05;;;;;;;2.06;100.00;97482.03;5092655;28;20028;-76
2023/11/30 02:34:23;;;;;;;1.50;1.40;;;;;;;1.97;100.00;97491.06;5072572;28;20110;-76
2023/11/30 02:36:49;;;;;;;1.65;1.55;;;;;;;1.97;100.00;97488.44;5072640;28;20560;-76
2023/11/30 02:39:14;;;;;;;1.95;1.48;;;;;;;1.93;100.00;97491.22;5072239;28;20058;-76
2023/11/30 02:41:40;;;;;;;4.57;1.98;;;;;;;1.94;100.00;97498.22;5090315;28;20032;-76
2023/11/30 02:44:06;;;;;;;1.60;1.38;;;;;;;1.93;100.00;97496.50;5072431;28;20024;-76
2023/11/30 02:46:32;;;;;;;2.50;2.08;;;;;;;1.95;100.00;97507.84;5089743;28;20476;-76
2023/11/30 02:48:57;;;;;;;2.22;2.08;;;;;;;2.06;100.00;97509.25;5067765;28;20048;-76
2023/11/30 02:51:24;;;;;;;1.70;1.42;;;;;;;2.15;100.00;97508.16;5086577;28;20032;-75
2023/11/30 02:53:49;;;;;;;2.05;1.92;;;;;;;2.11;100.00;97503.88;5071879;28;20035;-76
2023/11/30 02:56:15;;;;;;;1.77;1.67;;;;;;;2.07;100.00;97489.03;5072097;28;20032;-76
2023/11/30 02:58:40;;;;;;;0.63;0.63;;;;;;;1.99;100.00;97496.31;5073822;28;20448;-76
2023/11/30 03:01:06;;;;;;;1.30;1.30;;;;;;;2.00;100.00;97493.63;5110461;28;20027;-77
2023/11/30 03:03:31;;;;;;;1.45;1.35;;;;;;;1.99;100.00;97494.53;5091834;28;20019;-77
2023/11/30 03:05:57;;;;;;;3.15;2.70;;;;;;;1.94;100.00;97496.44;5072075;28;20043;-76
2023/11/30 03:08:22;;;;;;;6.53;2.75;;;;;;;1.89;100.00;97500.97;5074439;28;20032;-75
2023/11/30 03:10:48;;;;;;;1.67;1.58;;;;;;;1.97;100.00;97498.97;5092525;28;20169;-77
2023/11/30 03:13:14;;;;;;;5.00;3.28;;;;;;;1.98;100.00;97494.56;5090444;28;20036;-76
2023/11/30 03:15:43;;;;;;;1.52;1.42;;;;;;;2.02;100.00;97496.22;5095894;28;20050;-76
2023/11/30 03:18:09;;;;;;;2.78;2.50;;;;;;;2.02;100.00;97496.22;5095615;28;20039;-76
2023/11/30 03:20:35;;;;;;;1.42;1.33;;;;;;;2.01;100.00;97479.53;5114019;28;20115;-77
2023/11/30 03:23:04;;;;;;;3.75;2.15;;;;;;;2.08;100.00;97498.69;5095619;28;20049;-75
2023/11/30 03:25:30;;;;;;;1.55;1.45;;;;;;;2.04;100.00;97494.41;5078891;28;20486;-76
2023/11/30 03:27:55;;;;;;;2.03;1.33;;;;;;;2.04;100.00;97494.41;5075362;28;20028;-75
2023/11/30 03:30:24;;;;;;;4.13;2.28;;;;;;;1.95;100.00;97487.63;5082207;28;20030;-75
2023/11/30 03:32:49;;;;;;;1.75;1.55;;;;;;;1.95;100.00;97492.03;5075992;28;20028;-76
2023/11/30 03:35:15;;;;;;;1.25;1.15;;;;;;;2.02;100.00;97507.66;5075438;28;20027;-76
2023/11/30 03:37:42;;;;;;;3.83;1.02;;;;;;;1.87;100.00;97501.94;5075286;28;20454;-75
2023/11/30 03:40:11;;;;;;;0.70;0.70;;;;;;;2.02;100.00;97517.31;5088468;28;20031;-76
2023/11/30 03:42:39;;;;;;;1.60;1.50;;;;;;;1.99;100.00;97494.53;5061499;28;20487;-76
2023/11/30 03:45:05;;;;;;;7.32;3.72;;;;;;;2.05;100.00;97498.78;5075303;28;20028;-76
2023/11/30 03:47:31;;;;;;;1.13;1.13;;;;;;;2.06;100.00;97505.78;5075084;28;20085;-75
2023/11/30 03:49:56;;;;;;;2.88;0.95;;;;;;;1.96;100.00;97501.69;5060929;28;20056;-76
2023/11/30 03:52:23;;;;;;;0.98;0.98;;;;;;;1.90;100.00;97500.09;5095443;28;20035;-76
2023/11/30 03:54:48;;;;;;;5.05;2.80;;;;;;;1.94;100.00;97503.50;5095159;28;20073;-75
2023/11/30 03:57:14;;;;;;;2.75;2.08;;;;;;;1.97;100.00;97501.63;5089843;28;20040;-76
2023/11/30 03:59:39;;;;;;;0.68;0.68;;;;;;;1.94;100.00;97509.63;5083230;28;20476;-76
2023/11/30 04:02:05;;;;;;;1.45;1.35;;;;;;;1.90;100.00;97507.13;5092968;28;20052;-76
2023/11/30 04:04:31;;;;;;;6.43;1.58;;;;;;;1.96;100.00;97502.53;5082319;28;20179;-75
2023/11/30 04:06:56;;;;;;;1.02;1.02;;;;;;;1.94;100.00;97506.16;5094902;28;20035;-76
2023/11/30 04:09:22;;;;;;;2.55;1.77;;;;;;;1.95;100.00;97494.66;5078091;28;20035;-76
2023/11/30 04:11:47;;;;;;;0.43;0.43;;;;;;;1.88;100.00;97498.38;5085047;28;20403;-76
2023/11/30 04:14:13;;;;;;;1.08;1.08;;;;;;;1.80;100.00;97503.00;5087889;28;20096;-76
2023/11/30 04:16:38;;;;;;;1.83;1.73;;;;;;;1.79;100.00;97504.78;5086438;28;20189;-76
2023/11/30 04:19:04;;;;;;;1.77;1.55;;;;;;;1.81;100.00;97497.72;5056646;28;20024;-76
2023/11/30 04:21:30;;;;;;;2.92;2.38;;;;;;;1.74;100.00;97495.28;5089750;28;20035;-76
2023/11/30 04:23:56;;;;;;;1.25;0.82;;;;;;;1.55;100.00;97495.78;5077617;28;20471;-76
2023/11/30 04:26:21;;;;;;;0.57;0.57;;;;;;;1.61;100.00;97498.25;5094380;28;20020;-76
2023/11/30 04:28:47;;;;;;;1.30;1.20;;;;;;;1.58;100.00;97493.06;5094385;28;20043;-76
2023/11/30 04:31:12;;;;;;;0.93;0.93;;;;;;;1.63;100.00;97496.44;5081615;28;20070;-76
2023/11/30 04:33:38;;;;;;;0.73;0.73;;;;;;;1.54;100.00;97491.41;5070805;28;20033;-76
2023/11/30 04:36:04;;;;;;;0.88;0.88;;;;;;;1.61;100.00;97490.34;5076427;28;20479;-76
2023/11/30 04:38:30;;;;;;;1.20;1.17;;;;;;;1.63;100.00;97488.53;5094316;28;20093;-77
2023/11/30 04:40:55;;;;;;;1.50;1.40;;;;;;;1.64;100.00;97500.81;5074058;28;20032;-76
2023/11/30 04:43:21;;;;;;;0.80;0.80;;;;;;;1.57;100.00;97498.38;5073987;28;20030;-76
2023/11/30 04:45:46;;;;;;;5.32;3.20;;;;;;;1.66;100.00;97507.81;5073809;28;20059;-76
2023/11/30 04:48:13;;;;;;;1.55;1.25;;;;;;;1.66;100.00;97497.28;5092308;28;20476;-72
2023/11/30 04:50:38;;;;;;;1.10;0.93;;;;;;;1.56;100.00;97487.00;5073652;28;20051;-72
2023/11/30 04:53:04;;;;;;;5.43;2.35;;;;;;;1.59;100.00;97480.75;5067818;28;20035;-80
2023/11/30 04:55:29;;;;;;;6.80;3.50;;;;;;;1.63;100.00;97479.78;5094309;28;20467;-80
2023/11/30 04:57:55;;;;;;;2.95;2.00;;;;;;;1.71;100.00;97490.09;5076871;28;20024;-79
2023/11/30 05:00:21;;;;;;;2.15;1.45;;;;;;;1.72;100.00;97497.09;5077067;28;20027;-82
2023/11/30 05:02:51;;;;;;;0.60;0.60;;;;;;;1.66;100.00;97487.59;5056985;28;20020;-79
2023/11/30 05:05:18;;;;;;;2.65;1.75;;;;;;;1.54;100.00;97494.06;5073558;28;20414;-80
2023/11/30 05:07:44;;;;;;;2.50;2.25;;;;;;;1.55;100.00;97516.00;5056749;28;20139;-80
2023/11/30 05:10:09;;;;;;;2.10;1.73;;;;;;;1.51;100.00;97515.22;5073218;28;20126;-81
2023/11/30 05:12:35;;;;;;;1.23;1.13;;;;;;;1.41;100.00;97508.50;5079974;28;20023;-80
2023/11/30 05:15:01;;;;;;;1.05;1.05;;;;;;;1.48;100.00;97525.84;5093349;28;20031;-73
2023/11/30 05:17:26;;;;;;;8.60;0.98;;;;;;;1.44;100.00;97525.97;5059495;28;20033;-74
2023/11/30 05:19:52;;;;;;;1.65;1.42;;;;;;;1.45;100.00;97525.91;5073338;28;20567;-73
2023/11/30 05:22:17;;;;;;;5.00;1.83;;;;;;;1.53;100.00;97534.50;5077747;28;20024;-72
2023/11/30 05:24:43;;;;;;;1.00;0.93;;;;;;;1.53;100.00;97533.63;5068820;28;20035;-72
2023/11/30 05:27:08;;;;;;;5.78;2.38;;;;;;;1.43;100.00;97538.28;5089525;28;20399;-72
2023/11/30 05:29:34;;;;;;;11.77;4.47;;;;;;;1.42;100.00;97530.41;5072934;28;20032;-72
2023/11/30 05:31:59;;;;;;;6.10;4.32;;;;;;;1.47;100.00;97533.81;5082254;28;20031;-73
2023/11/30 05:34:25;;;;;;;12.15;2.53;;;;;;;1.40;100.00;97541.00;5098263;28;20066;-72
2023/11/30 05:36:52;;;;;;;0.90;0.90;;;;;;;1.38;100.00;97542.81;5073130;28;20117;-72
2023/11/30 05:39:17;;;;;;;2.72;1.58;;;;;;;1.33;100.00;97536.78;5072911;28;20098;-72
2023/11/30 05:41:43;;;;;;;1.17;1.17;;;;;;;1.37;100.00;97548.97;5106595;28;20032;-72
2023/11/30 05:44:08;;;;;;;0.95;0.95;;;;;;;1.27;100.00;97536.94;5074071;28;20031;-72
2023/11/30 05:46:34;;;;;;;2.17;1.98;;;;;;;1.31;100.00;97541.25;5087210;28;20023;-73
2023/11/30 05:48:59;;;;;;;7.18;2.10;;;;;;;1.26;100.00;97542.25;5084333;28;20495;-73
2023/11/30 05:51:26;;;;;;;2.75;2.55;;;;;;;1.23;100.00;97535.28;5088627;28;20069;-73
2023/11/30 05:53:52;;;;;;;1.55;1.45;;;;;;;1.07;100.00;97539.22;5072864;28;20048;-73
2023/11/30 05:56:17;;;;;;;0.95;0.95;;;;;;;0.98;100.00;97535.06;5083973;28;20092;-72
2023/11/30 05:58:43;;;;;;;4.20;1.95;;;;;;;0.98;100.00;97526.28;5093036;28;20051;-72
2023/11/30 06:01:08;;;;;;;3.60;2.05;;;;;;;0.98;100.00;97531.56;5073976;28;20020;-72
2023/11/30 06:03:34;;;;;;;0.93;0.93;;;;;;;1.05;100.00;97535.75;5072517;28;20031;-73
2023/11/30 06:06:00;;;;;;;1.23;1.13;;;;;;;1.13;100.00;97543.47;5072623;28;20028;-73
2023/11/30 06:08:26;;;;;;;1.13;1.13;;;;;;;1.13;100.00;97541.72;5076416;28;20027;-73
2023/11/30 06:10:52;;;;;;;1.95;0.95;;;;;;;1.03;100.00;97527.91;5084298;28;20062;-73
2023/11/30 06:13:17;;;;;;;0.90;0.85;;;;;;;1.24;100.00;97552.81;5092555;28;20024;-73
2023/11/30 06:15:44;;;;;;;0.68;0.68;;;;;;;1.36;100.00;97551.63;5093068;28;20038;-72
2023/11/30 06:18:10;;;;;;;0.70;0.70;;;;;;;1.36;100.00;97547.25;5064237;28;20547;-72
2023/11/30 06:20:35;;;;;;;2.58;1.23;;;;;;;1.32;100.00;97550.00;5072541;28;20137;-72
2023/11/30 06:23:00;;;;;;;1.73;1.48;;;;;;;1.11;100.00;97545.28;5072871;28;20027;-73
2023/11/30 06:25:26;;;;;;;1.75;1.50;;;;;;;1.23;100.00;97552.88;5088842;28;20024;-71
2023/11/30 06:27:52;;;;;;;1.58;1.48;;;;;;;1.08;100.00;97551.47;5062991;28;20539;-72
2023/11/30 06:30:17;;;;;;;1.13;1.05;;;;;;;1.20;100.00;97545.88;5110515;28;20028;-73
2023/11/30 06:32:43;;;;;;;1.75;1.50;;;;;;;1.15;100.00;97553.06;5075652;28;20035;-72
2023/11/30 06:35:08;;;;;;;2.90;2.00;;;;;;;1.09;100.00;97558.47;5092463;28;20031;-72
2023/11/30 06:37:34;;;;;;;1.38;1.33;;;;;;;1.16;100.00;97551.28;5079744;28;20046;-72
2023/11/30 06:39:59;;;;;;;0.85;0.85;;;;;;;1.17;100.00;97577.56;5055657;28;20376;-72
2023/11/30 06:42:25;;;;;;;4.43;2.15;;;;;;;1.14;100.00;97577.66;5072980;28;20024;-73
2023/11/30 06:44:50;;;;;;;5.65;4.07;;;;;;;1.22;100.00;97583.63;5076270;28;20035;-73
2023/11/30 06:47:16;;;;;;;5.85;3.17;;;;;;;1.12;100.00;97574.19;5069530;28;20096;-73
2023/11/30 06:49:42;;;;;;;6.15;3.53;;;;;;;1.10;100.00;97570.75;5093017;28;20048;-73
2023/11/30 06:52:07;;;;;;;2.47;1.63;;;;;;;1.11;100.00;97554.03;5075255;28;20028;-74
2023/11/30 06:54:33;;;;;;;2.97;2.72;;;;;;;1.39;100.00;97567.38;5056073;28;20028;-73
2023/11/30 06:56:59;;;;;;;2.75;2.38;;;;;;;1.43;100.00;97559.38;5080314;28;20032;-74
2023/11/30 06:59:24;;;;;;;1.17;1.17;;;;;;;1.70;100.00;97570.06;5072963;28;20040;-73
2023/11/30 07:01:50;;;;;;;2.42;2.15;;;;;;;1.57;100.00;97546.69;5078864;28;20057;-74
2023/11/30 07:04:17;;;;;;;3.70;2.67;;;;;;;1.71;100.00;97550.72;5057682;28;20074;-72
2023/11/30 07:06:42;;;;;;;2.03;1.85;;;;;;;1.89;100.00;97544.94;5089303;28;20032;-73
2023/11/30 07:09:12;;;;;;;3.03;2.65;;;;;;;1.87;100.00;97550.28;5072184;28;20028;-73
2023/11/30 07:11:38;;;;;;;8.48;3.63;;;;;;;1.93;100.00;97543.97;5081401;28;20472;-73
2023/11/30 07:14:04;;;;;;;3.97;2.25;;;;;;;1.92;100.00;97536.94;5072208;28;20036;-72
2023/11/30 07:16:29;;;;;;;1.23;1.15;;;;;;;1.95;100.00;97543.00;5088695;28;20024;-73
2023/11/30 07:18:55;;;;;;;4.05;2.00;;;;;;;1.99;100.00;97533.25;5052270;28;20028;-72
2023/11/30 07:21:20;;;;;;;2.20;1.90;;;;;;;1.96;100.00;97522.78;5072353;28;20114;-76
2023/11/30 07:23:46;;;;;;;1.40;1.30;;;;;;;2.10;100.00;97531.16;5087083;28;20031;-74
2023/11/30 07:26:13;;;;;;;15.27;3.90;;;;;;;2.20;100.00;97537.91;5072507;28;20047;-73
2023/11/30 07:28:39;;;;;;;5.20;2.97;;;;;;;2.61;100.00;97507.63;5075582;28;20081;-74
2023/11/30 07:31:04;;;;;;;7.50;3.70;;;;;;;3.13;100.00;97517.38;5085142;28;20546;-73
2023/11/30 07:33:30;;;;;;;4.30;2.78;;;;;;;2.72;100.00;97497.56;5072481;28;20028;-72
2023/11/30 07:35:55;;;;;;;6.05;3.03;;;;;;;2.69;100.00;97498.53;5072523;28;20403;-73
2023/11/30 07:38:21;;;;;;;4.03;3.65;;;;;;;2.50;100.00;97493.88;5071693;28;20048;-73
2023/11/30 07:40:47;;;;;;;4.80;4.18;;;;;;;2.50;100.00;97500.03;5071946;28;20029;-73
2023/11/30 07:43:14;;;;;;;5.03;3.05;;;;;;;2.38;100.00;97496.88;5080321;28;20039;-73
2023/11/30 07:45:39;;;;;;;5.15;3.83;;;;;;;2.50;100.00;97521.13;5079420;28;20377;-74
2023/11/30 07:48:05;;;;;;;2.42;2.33;;;;;;;2.55;100.00;97506.00;5073125;28;20031;-73
2023/11/30 07:50:31;;;;;;;4.70;4.30;;;;;;;2.52;100.00;97505.28;5071499;28;20048;-73
2023/11/30 07:52:56;;;;;;;7.80;5.13;;;;;;;2.51;100.00;97504.41;5071671;28;20028;-74
2023/11/30 07:55:22;;;;;;;3.08;1.60;;;;;;;2.87;100.00;97515.56;5070328;28;20036;-72
2023/11/30 07:57:48;;;;;;;3.22;2.97;;;;;;;2.92;100.00;97520.72;5071662;28;20024;-73
2023/11/30 08:00:15;;;;;;;5.88;4.15;;;;;;;3.16;100.00;97517.28;5054558;28;20070;-74
2023/11/30 08:02:42;;;;;;;4.20;2.97;;;;;;;3.32;100.00;97501.75;5071564;28;20021;-74
2023/11/30 08:05:07;;;;;;;4.22;3.42;;;;;;;3.56;100.00;97517.66;5071396;28;20033;-73
2023/11/30 08:07:33;;;;;;;5.15;4.03;;;;;;;3.84;100.00;97518.38;5071195;28;20042;-73
2023/11/30 08:09:59;;;;;;;5.30;4.28;;;;;;;4.21;100.00;97509.97;5071512;28;20534;-74
2023/11/30 08:12:25;;;;;;;9.73;3.25;;;;;;;4.27;100.00;97509.75;5054264;28;20040;-73
2023/11/30 08:14:50;;;;;;;7.90;3.90;;;;;;;4.30;100.00;97507.00;5071129;28;20039;-73
2023/11/30 08:17:16;;;;;;;3.65;2.80;;;;;;;4.22;100.00;97509.03;5054562;28;20039;-73
2023/11/30 08:19:41;;;;;;;10.10;4.55;;;;;;;4.30;100.00;97508.75;5071116;28;20444;-73
2023/11/30 08:22:07;;;;;;;6.85;3.78;;;;;;;3.76;100.00;97509.84;5071142;28;20032;-73
2023/11/30 08:24:33;;;;;;;3.88;3.58;;;;;;;3.36;100.00;97504.22;5071040;28;20036;-73
2023/11/30 08:27:02;;;;;;;3.80;2.88;;;;;;;3.06;100.00;97515.84;5071070;28;20365;-73
2023/11/30 08:29:27;;;;;;;1.95;1.80;;;;;;;2.87;100.00;97519.97;5070676;28;20032;-72
2023/11/30 08:31:53;;;;;;;1.63;1.52;;;;;;;3.22;100.00;97522.34;5070960;28;20427;-72
2023/11/30 08:34:18;;;;;;;2.17;1.95;;;;;;;3.41;100.00;97534.03;5053893;28;20068;-74
2023/11/30 08:36:44;;;;;;;1.75;1.52;;;;;;;3.62;100.00;97546.53;5070699;28;20040;-73
2023/11/30 08:39:10;;;;;;;3.25;1.80;;;;;;;3.85;100.00;97540.41;5070767;28;20033;-73
2023/11/30 08:41:38;;;;;;;3.58;2.90;;;;;;;3.99;100.00;97522.28;5070718;28;20488;-74
2023/11/30 08:44:04;;;;;;;7.85;4.15;;;;;;;4.30;100.00;97522.88;5070719;28;20468;-73
2023/11/30 08:46:32;;;;;;;6.65;2.83;;;;;;;4.61;100.00;97501.38;5070635;28;20089;-73
2023/11/30 08:48:58;;;;;;;3.35;3.08;;;;;;;5.21;100.00;97498.03;5059645;28;20031;-72
2023/11/30 08:51:24;;;;;;;5.47;4.22;;;;;;;5.42;100.00;97477.69;5077300;28;20031;-72
2023/11/30 08:53:49;;;;;;;4.15;3.60;;;;;;;5.36;100.00;97456.72;5077140;28;20031;-73
2023/11/30 08:56:15;;;;;;;6.93;3.47;;;;;;;5.58;100.00;97456.66;5077219;28;20035;-73
2023/11/30 08:58:40;;;;;;;7.18;3.65;;;;;;;5.31;100.00;97450.78;5076905;28;20536;-73
2023/11/30 09:01:07;;;;;;;1.73;1.42;;;;;;;5.15;100.00;97453.22;5077141;28;20023;-72
2023/11/30 09:03:32;;;;;;;1.20;1.20;;;;;;;5.03;100.00;97450.22;5077078;28;20069;-73
2023/11/30 09:05:58;;;;;;;7.20;2.60;;;;;;;5.50;100.00;97462.31;5093552;28;20027;-73
2023/11/30 09:08:23;;;;;;;1.55;1.45;;;;;;;5.79;100.00;97459.25;5093882;28;20031;-73
2023/11/30 09:10:49;;;;;;;5.57;4.13;;;;;;;5.43;100.00;97443.16;5076782;28;20024;-72
2023/11/30 09:13:14;;;;;;;3.28;2.55;;;;;;;5.22;100.00;97457.34;5086451;28;20564;-73
2023/11/30 09:15:40;;;;;;;2.10;1.95;;;;;;;5.27;100.00;97459.78;5073291;28;20054;-73
2023/11/30 09:18:07;;;;;;;1.35;1.25;;;;;;;6.10;100.00;97455.22;5073659;28;20507;-72
2023/11/30 09:20:33;;;;;;;1.77;1.63;;;;;;;7.00;100.00;97436.72;5074506;28;20525;-73
2023/11/30 09:22:58;;;;;;;1.83;1.45;;;;;;;6.96;100.00;97430.69;5093577;28;20020;-73
2023/11/30 09:25:24;;;;;;;1.77;1.45;;;;;;;6.30;100.00;97408.25;5056939;28;20028;-72
2023/11/30 09:27:49;;;;;;;0.65;0.65;;;;;;;6.15;100.00;97408.97;5072779;28;20058;-73
2023/11/30 09:30:15;;;;;;;1.83;1.58;;;;;;;6.09;100.00;97395.94;5073088;28;20054;-73
2023/11/30 09:32:40;;;;;;;1.52;1.42;;;;;;;6.45;100.00;97386.28;5091510;28;20028;-72
2023/11/30 09:35:06;;;;;;;1.85;1.63;;;;;;;6.96;100.00;97364.22;5076643;28;20034;-74
2023/11/30 09:37:32;;;;;;;3.08;2.85;;;;;;;6.62;100.00;97353.53;5093225;28;20027;-73
2023/11/30 09:39:59;;;;;;;5.90;3.83;;;;;;;6.14;100.00;97359.44;5093184;28;20034;-73
2023/11/30 09:42:26;;;;;;;8.38;3.88;;;;;;;5.65;100.00;97360.84;5084759;28;20278;-74
2023/11/30 09:44:58;;;;;;;10.32;6.88;;;;;;;5.71;100.00;97379.13;5076173;28;20019;-73
2023/11/30 09:47:23;;;;;;;5.05;4.20;;;;;;;5.98;100.00;97369.06;5092968;28;20028;-72
2023/11/30 09:49:49;;;;;;;3.40;2.90;;;;;;;5.96;100.00;97370.94;5073119;28;20047;-73
2023/11/30 09:52:14;;;;;;;2.53;2.33;;;;;;;6.30;100.00;97356.94;5087395;28;20151;-73
2023/11/30 09:54:40;;;;;;;3.72;1.95;;;;;;;7.11;100.00;97343.13;5074888;28;20110;-74
2023/11/30 09:57:07;;;;;;;11.25;3.50;;;;;;;7.92;100.00;97317.41;5056381;28;20108;-73
2023/11/30 09:59:32;;;;;;;16.83;5.05;;;;;;;9.21;100.00;97308.13;5081269;28;20035;-74
2023/11/30 10:02:02;;;;;;;7.78;5.07;;;;;;;9.53;100.00;97299.97;5075971;28;20560;-75
2023/11/30 10:04:27;;;;;;;4.10;3.15;;;;;;;9.47;100.00;97311.00;5076958;28;20035;-74
2023/11/30 10:06:56;;;;;;;8.57;4.20;;;;;;;10.17;100.00;97315.50;5083764;28;20035;-74
2023/11/30 10:09:23;;;;;;;9.50;3.97;;;;;;;12.39;100.00;97302.78;5060701;28;20031;-73
2023/11/30 10:11:48;;;;;;;4.90;2.80;;;;;;;12.78;100.00;97279.31;5072252;28;20054;-73
2023/11/30 10:14:14;;;;;;;3.35;2.60;;;;;;;13.96;100.00;97262.88;5072676;28;20035;-73
2023/11/30 10:16:40;;;;;;;5.13;2.47;;;;;;;14.37;96.58;97256.84;5060896;28;20094;-74
2023/11/30 10:19:06;;;;;;;12.13;3.38;;;;;;;15.10;84.98;97254.25;5060208;28;20027;-73
2023/11/30 10:21:32;;;;;;;0.70;0.70;;;;;;;15.41;64.01;97217.47;5075662;28;20386;-72
2023/11/30 10:23:57;;;;;;;0.52;0.50;;;;;;;15.10;64.39;97213.84;5072403;28;20086;-73
2023/11/30 10:26:24;;;;;;;0.50;0.50;;;;;;;14.61;63.71;97232.47;5080760;28;20039;-73
2023/11/30 10:28:54;;;;;;;0.38;0.35;;;;;;;13.76;66.91;97219.72;5089031;28;20024;-74
2023/11/30 10:31:23;;;;;;;2.53;0.63;;;;;;;12.90;72.50;97201.38;5072472;28;20027;-73
2023/11/30 10:33:56;;;;;;;3.30;0.30;;;;;;;12.62;80.99;97222.38;5072201;28;20024;-73
2023/11/30 10:36:25;;;;;;;0.30;0.30;;;;;;;12.26;85.12;97228.66;5061952;28;20566;-74
2023/11/30 10:38:53;;;;;;;0.50;0.45;;;;;;;12.05;87.71;97220.38;5073892;28;20070;-74
2023/11/30 10:41:30;;;;;;;0.40;0.40;;;;;;;12.21;90.11;97223.63;5078112;28;20170;-73
2023/11/30 10:43:59;;;;;;;0.82;0.65;;;;;;;13.13;82.75;97212.22;5073150;28;20020;-72
2023/11/30 10:46:26;;;;;;;0.45;0.45;;;;;;;14.45;71.73;97211.34;5062260;28;20054;-74
2023/11/30 10:48:52;;;;;;;0.20;0.20;;;;;;;15.73;62.22;97190.41;5092111;28;20445;-73
2023/11/30 10:51:19;;;;;;;1.25;0.80;;;;;;;16.45;58.75;97188.38;5075276;28;20498;-73
2023/11/30 10:53:44;;;;;;;0.35;0.35;;;;;;;16.18;58.69;97209.78;5092377;28;20050;-73
2023/11/30 10:56:10;;;;;;;1.00;0.60;;;;;;;15.45;59.84;97207.28;5106511;28;20016;-74
2023/11/30 10:58:36;;;;;;;0.70;0.68;;;;;;;15.20;59.53;97205.84;5089010;28;20483;-72
2023/11/30 11:01:02;;;;;;;0.10;0.10;;;;;;;14.97;61.86;97193.50;5058099;28;20055;-73
2023/11/30 11:03:28;;;;;;;0.63;0.63;;;;;;;14.77;63.01;97199.69;5069055;28;20156;-73
2023/11/30 11:05:55;;;;;;;0.65;0.55;;;;;;;14.91;61.83;97169.78;5071606;28;20060;-73
2023/11/30 11:08:20;;;;;;;0.47;0.47;;;;;;;14.91;63.68;97165.25;5060720;28;20035;-73
2023/11/30 11:10:47;;;;;;;0.40;0.40;;;;;;;14.26;65.28;97169.91;5075153;28;20036;-72
2023/11/30 11:13:26;;;;;;;0.65;0.60;;;;;;;14.05;65.91;97148.31;5088177;28;20046;-73
2023/11/30 11:15:58;;;;;;;7.07;2.90;;;;;;;14.52;64.91;97137.16;5089719;28;20074;-73
2023/11/30 11:18:30;;;;;;;6.40;3.53;;;;;;;14.90;63.08;97111.50;5086547;28;20107;-73
2023/11/30 11:20:55;;;;;;;11.15;4.45;;;;;;;15.14;62.45;97109.38;5054930;28;20055;-73
2023/11/30 11:23:21;;;;;;;6.60;3.70;;;;;;;15.33;62.39;97101.41;5071869;28;20024;-73
2023/11/30 11:25:47;;;;;;;5.85;3.08;;;;;;;15.67;59.81;97110.94;5054891;28;20090;-73
2023/11/30 11:28:16;;;;;;;5.97;2.88;;;;;;;16.47;55.17;97113.47;5072835;28;20344;-73